sensor_id;sensor_type;location;lat;lon;timestamp;temperature;humidity
64549;DHT22;49838;51.798;10.954;2023-05-17T00:01:54;14.80;31.60
64549;DHT22;49838;51.798;10.954;2023-05-17T00:04:21;14.70;31.60
64549;DHT22;49838;51.798;10.954;2023-05-17T00:06:49;14.70;31.70
64549;DHT22;49838;51.798;10.954;2023-05-17T00:09:16;14.70;31.90
64549;DHT22;49838;51.798;10.954;2023-05-17T00:11:44;14.70;32.30
64549;DHT22;49838;51.798;10.954;2023-05-17T00:14:11;14.70;32.70
64549;DHT22;49838;51.798;10.954;2023-05-17T00:16:40;14.70;33.00
64549;DHT22;49838;51.798;10.954;2023-05-17T00:19:07;14.70;33.10
64549;DHT22;49838;51.798;10.954;2023-05-17T00:21:35;14.60;33.10
64549;DHT22;49838;51.798;10.954;2023-05-17T00:24:03;14.60;33.10
64549;DHT22;49838;51.798;10.954;2023-05-17T00:26:30;14.60;33.20
64549;DHT22;49838;51.798;10.954;2023-05-17T00:28:58;14.60;33.30
64549;DHT22;49838;51.798;10.954;2023-05-17T00:31:26;14.60;33.50
64549;DHT22;49838;51.798;10.954;2023-05-17T00:33:55;14.60;33.50
64549;DHT22;49838;51.798;10.954;2023-05-17T00:36:22;14.60;33.60
64549;DHT22;49838;51.798;10.954;2023-05-17T00:38:49;14.60;33.50
64549;DHT22;49838;51.798;10.954;2023-05-17T00:41:17;14.40;33.50
64549;DHT22;49838;51.798;10.954;2023-05-17T00:43:44;14.60;33.70
64549;DHT22;49838;51.798;10.954;2023-05-17T00:46:11;14.60;33.80
64549;DHT22;49838;51.798;10.954;2023-05-17T00:48:39;14.60;34.20
64549;DHT22;49838;51.798;10.954;2023-05-17T00:51:07;14.50;34.10
64549;DHT22;49838;51.798;10.954;2023-05-17T00:53:35;14.60;34.30
64549;DHT22;49838;51.798;10.954;2023-05-17T00:56:03;14.60;34.40
64549;DHT22;49838;51.798;10.954;2023-05-17T00:58:31;14.60;34.40
64549;DHT22;49838;51.798;10.954;2023-05-17T01:00:59;14.60;34.30
64549;DHT22;49838;51.798;10.954;2023-05-17T01:03:27;14.50;34.50
64549;DHT22;49838;51.798;10.954;2023-05-17T01:05:55;14.50;34.50
64549;DHT22;49838;51.798;10.954;2023-05-17T01:08:23;14.50;34.40
64549;DHT22;49838;51.798;10.954;2023-05-17T01:10:52;14.50;34.30
64549;DHT22;49838;51.798;10.954;2023-05-17T01:13:23;14.50;34.60
64549;DHT22;49838;51.798;10.954;2023-05-17T01:16:09;14.60;34.60
64549;DHT22;49838;51.798;10.954;2023-05-17T01:18:43;14.50;34.50
64549;DHT22;49838;51.798;10.954;2023-05-17T01:21:17;14.50;34.40
64549;DHT22;49838;51.798;10.954;2023-05-17T01:24:02;14.50;34.50
64549;DHT22;49838;51.798;10.954;2023-05-17T01:26:42;14.50;34.70
64549;DHT22;49838;51.798;10.954;2023-05-17T01:29:15;14.50;34.50
64549;DHT22;49838;51.798;10.954;2023-05-17T01:31:46;14.60;34.40
64549;DHT22;49838;51.798;10.954;2023-05-17T01:34:22;14.60;34.30
64549;DHT22;49838;51.798;10.954;2023-05-17T01:36:51;14.60;34.30
64549;DHT22;49838;51.798;10.954;2023-05-17T01:39:19;14.60;34.30
64549;DHT22;49838;51.798;10.954;2023-05-17T01:41:50;14.60;34.30
64549;DHT22;49838;51.798;10.954;2023-05-17T01:44:25;14.60;34.40
64549;DHT22;49838;51.798;10.954;2023-05-17T01:46:57;14.60;34.50
64549;DHT22;49838;51.798;10.954;2023-05-17T01:49:29;14.60;34.50
64549;DHT22;49838;51.798;10.954;2023-05-17T01:52:07;14.50;34.50
64549;DHT22;49838;51.798;10.954;2023-05-17T01:54:46;14.50;34.90
64549;DHT22;49838;51.798;10.954;2023-05-17T01:57:19;14.50;34.80
64549;DHT22;49838;51.798;10.954;2023-05-17T01:59:54;14.50;34.80
64549;DHT22;49838;51.798;10.954;2023-05-17T02:02:25;14.50;34.60
64549;DHT22;49838;51.798;10.954;2023-05-17T02:04:53;14.50;34.70
64549;DHT22;49838;51.798;10.954;2023-05-17T02:07:20;14.50;35.00
64549;DHT22;49838;51.798;10.954;2023-05-17T02:09:47;14.50;34.90
64549;DHT22;49838;51.798;10.954;2023-05-17T02:12:15;14.50;35.00
64549;DHT22;49838;51.798;10.954;2023-05-17T02:14:44;14.50;34.80
64549;DHT22;49838;51.798;10.954;2023-05-17T02:17:11;14.50;34.60
64549;DHT22;49838;51.798;10.954;2023-05-17T02:19:38;14.50;34.90
64549;DHT22;49838;51.798;10.954;2023-05-17T02:22:05;14.50;35.10
64549;DHT22;49838;51.798;10.954;2023-05-17T02:24:33;14.50;35.00
64549;DHT22;49838;51.798;10.954;2023-05-17T02:27:00;14.50;35.00
64549;DHT22;49838;51.798;10.954;2023-05-17T02:29:28;14.50;35.00
64549;DHT22;49838;51.798;10.954;2023-05-17T02:31:57;14.50;35.00
64549;DHT22;49838;51.798;10.954;2023-05-17T02:34:24;14.50;34.90
64549;DHT22;49838;51.798;10.954;2023-05-17T02:36:51;14.50;34.90
64549;DHT22;49838;51.798;10.954;2023-05-17T02:39:18;14.70;35.00
64549;DHT22;49838;51.798;10.954;2023-05-17T02:41:46;14.50;34.70
64549;DHT22;49838;51.798;10.954;2023-05-17T02:44:13;14.50;34.60
64549;DHT22;49838;51.798;10.954;2023-05-17T02:46:40;14.50;34.70
64549;DHT22;49838;51.798;10.954;2023-05-17T02:49:09;14.50;34.70
64549;DHT22;49838;51.798;10.954;2023-05-17T02:51:36;14.50;34.70
64549;DHT22;49838;51.798;10.954;2023-05-17T02:54:03;14.50;34.70
64549;DHT22;49838;51.798;10.954;2023-05-17T02:56:31;14.50;34.60
64549;DHT22;49838;51.798;10.954;2023-05-17T02:58:58;14.50;34.50
64549;DHT22;49838;51.798;10.954;2023-05-17T03:01:26;14.50;34.40
64549;DHT22;49838;51.798;10.954;2023-05-17T03:03:54;14.50;34.40
64549;DHT22;49838;51.798;10.954;2023-05-17T03:06:22;14.50;34.30
64549;DHT22;49838;51.798;10.954;2023-05-17T03:08:49;14.50;34.40
64549;DHT22;49838;51.798;10.954;2023-05-17T03:11:17;14.50;34.40
64549;DHT22;49838;51.798;10.954;2023-05-17T03:13:47;14.40;34.30
64549;DHT22;49838;51.798;10.954;2023-05-17T03:16:16;14.50;34.40
64549;DHT22;49838;51.798;10.954;2023-05-17T03:18:44;14.50;34.30
64549;DHT22;49838;51.798;10.954;2023-05-17T03:21:11;14.50;34.30
64549;DHT22;49838;51.798;10.954;2023-05-17T03:23:40;14.60;34.40
64549;DHT22;49838;51.798;10.954;2023-05-17T03:26:07;14.60;34.40
64549;DHT22;49838;51.798;10.954;2023-05-17T03:28:34;14.60;34.30
64549;DHT22;49838;51.798;10.954;2023-05-17T03:31:01;14.70;34.40
64549;DHT22;49838;51.798;10.954;2023-05-17T03:33:29;14.70;34.40
64549;DHT22;49838;51.798;10.954;2023-05-17T03:35:56;14.80;34.60
64549;DHT22;49838;51.798;10.954;2023-05-17T03:38:24;14.80;34.70
64549;DHT22;49838;51.798;10.954;2023-05-17T03:40:53;14.80;34.70
64549;DHT22;49838;51.798;10.954;2023-05-17T03:43:20;14.80;34.70
64549;DHT22;49838;51.798;10.954;2023-05-17T03:45:47;14.90;34.80
64549;DHT22;49838;51.798;10.954;2023-05-17T03:48:15;15.00;34.80
64549;DHT22;49838;51.798;10.954;2023-05-17T03:50:42;15.10;34.90
64549;DHT22;49838;51.798;10.954;2023-05-17T03:53:09;15.20;35.00
64549;DHT22;49838;51.798;10.954;2023-05-17T03:55:36;15.20;34.90
64549;DHT22;49838;51.798;10.954;2023-05-17T03:58:05;15.30;35.10
64549;DHT22;49838;51.798;10.954;2023-05-17T04:00:33;15.30;35.00
64549;DHT22;49838;51.798;10.954;2023-05-17T04:03:01;15.40;35.00
64549;DHT22;49838;51.798;10.954;2023-05-17T04:05:28;15.70;35.00
64549;DHT22;49838;51.798;10.954;2023-05-17T04:07:55;16.00;35.20
64549;DHT22;49838;51.798;10.954;2023-05-17T04:10:23;16.30;35.10
64549;DHT22;49838;51.798;10.954;2023-05-17T04:12:50;16.60;35.10
64549;DHT22;49838;51.798;10.954;2023-05-17T04:15:19;17.00;35.10
64549;DHT22;49838;51.798;10.954;2023-05-17T04:17:46;17.50;34.80
64549;DHT22;49838;51.798;10.954;2023-05-17T04:20:14;18.10;34.40
64549;DHT22;49838;51.798;10.954;2023-05-17T04:22:41;18.60;34.30
64549;DHT22;49838;51.798;10.954;2023-05-17T04:25:09;19.00;34.20
64549;DHT22;49838;51.798;10.954;2023-05-17T04:27:36;19.40;34.20
64549;DHT22;49838;51.798;10.954;2023-05-17T04:30:05;19.80;34.20
64549;DHT22;49838;51.798;10.954;2023-05-17T04:32:34;20.10;34.10
64549;DHT22;49838;51.798;10.954;2023-05-17T04:35:01;20.60;34.20
64549;DHT22;49838;51.798;10.954;2023-05-17T04:37:29;21.00;34.20
64549;DHT22;49838;51.798;10.954;2023-05-17T04:39:56;21.20;34.10
64549;DHT22;49838;51.798;10.954;2023-05-17T04:42:24;20.80;34.00
64549;DHT22;49838;51.798;10.954;2023-05-17T04:44:51;20.40;34.10
64549;DHT22;49838;51.798;10.954;2023-05-17T04:47:19;20.40;34.40
64549;DHT22;49838;51.798;10.954;2023-05-17T04:49:47;20.50;34.40
64549;DHT22;49838;51.798;10.954;2023-05-17T04:52:16;20.70;34.30
64549;DHT22;49838;51.798;10.954;2023-05-17T04:54:43;20.80;34.10
64549;DHT22;49838;51.798;10.954;2023-05-17T04:57:11;21.10;34.10
64549;DHT22;49838;51.798;10.954;2023-05-17T04:59:38;21.40;34.00
64549;DHT22;49838;51.798;10.954;2023-05-17T05:02:05;22.00;34.00
64549;DHT22;49838;51.798;10.954;2023-05-17T05:04:32;22.30;33.80
64549;DHT22;49838;51.798;10.954;2023-05-17T05:07:01;22.50;33.70
64549;DHT22;49838;51.798;10.954;2023-05-17T05:09:28;22.20;33.50
64549;DHT22;49838;51.798;10.954;2023-05-17T05:11:56;21.70;33.60
64549;DHT22;49838;51.798;10.954;2023-05-17T05:14:23;21.20;33.90
64549;DHT22;49838;51.798;10.954;2023-05-17T05:16:50;20.80;34.00
64549;DHT22;49838;51.798;10.954;2023-05-17T05:19:17;20.60;34.10
64549;DHT22;49838;51.798;10.954;2023-05-17T05:21:45;20.40;34.20
64549;DHT22;49838;51.798;10.954;2023-05-17T05:24:13;20.30;34.20
64549;DHT22;49838;51.798;10.954;2023-05-17T05:26:40;20.20;34.30
64549;DHT22;49838;51.798;10.954;2023-05-17T05:29:09;20.50;35.00
64549;DHT22;49838;51.798;10.954;2023-05-17T05:31:36;20.50;34.10
64549;DHT22;49838;51.798;10.954;2023-05-17T05:34:04;20.40;34.20
64549;DHT22;49838;51.798;10.954;2023-05-17T05:36:31;20.20;34.20
64549;DHT22;49838;51.798;10.954;2023-05-17T05:38:59;19.90;34.20
64549;DHT22;49838;51.798;10.954;2023-05-17T05:41:28;19.70;34.30
64549;DHT22;49838;51.798;10.954;2023-05-17T05:43:56;19.50;34.30
64549;DHT22;49838;51.798;10.954;2023-05-17T05:46:23;19.40;34.30
64549;DHT22;49838;51.798;10.954;2023-05-17T05:48:50;19.30;34.30
64549;DHT22;49838;51.798;10.954;2023-05-17T05:51:18;19.10;34.40
64549;DHT22;49838;51.798;10.954;2023-05-17T05:53:45;18.80;34.40
64549;DHT22;49838;51.798;10.954;2023-05-17T05:56:12;18.80;34.60
64549;DHT22;49838;51.798;10.954;2023-05-17T05:58:41;18.90;34.50
64549;DHT22;49838;51.798;10.954;2023-05-17T06:01:08;18.90;34.50
64549;DHT22;49838;51.798;10.954;2023-05-17T06:03:36;18.80;34.40
64549;DHT22;49838;51.798;10.954;2023-05-17T06:06:03;18.70;34.40
64549;DHT22;49838;51.798;10.954;2023-05-17T06:08:31;18.60;34.40
64549;DHT22;49838;51.798;10.954;2023-05-17T06:10:58;18.50;34.50
64549;DHT22;49838;51.798;10.954;2023-05-17T06:13:25;18.40;34.50
64549;DHT22;49838;51.798;10.954;2023-05-17T06:15:54;18.30;34.50
64549;DHT22;49838;51.798;10.954;2023-05-17T06:18:21;18.20;34.60
64549;DHT22;49838;51.798;10.954;2023-05-17T06:20:49;18.10;34.40
64549;DHT22;49838;51.798;10.954;2023-05-17T06:23:16;18.50;34.60
64549;DHT22;49838;51.798;10.954;2023-05-17T06:25:43;19.50;34.50
64549;DHT22;49838;51.798;10.954;2023-05-17T06:28:10;20.00;34.10
64549;DHT22;49838;51.798;10.954;2023-05-17T06:30:38;20.10;34.00
64549;DHT22;49838;51.798;10.954;2023-05-17T06:33:06;20.10;34.10
64549;DHT22;49838;51.798;10.954;2023-05-17T06:35:34;20.60;34.00
64549;DHT22;49838;51.798;10.954;2023-05-17T06:38:01;20.90;33.70
64549;DHT22;49838;51.798;10.954;2023-05-17T06:40:29;20.70;33.60
64549;DHT22;49838;51.798;10.954;2023-05-17T06:42:56;20.50;33.80
64549;DHT22;49838;51.798;10.954;2023-05-17T06:45:23;20.70;33.90
64549;DHT22;49838;51.798;10.954;2023-05-17T06:47:52;21.00;33.40
64549;DHT22;49838;51.798;10.954;2023-05-17T06:50:20;21.20;33.30
64549;DHT22;49838;51.798;10.954;2023-05-17T06:52:48;21.70;33.60
64549;DHT22;49838;51.798;10.954;2023-05-17T06:55:15;22.20;33.90
64549;DHT22;49838;51.798;10.954;2023-05-17T06:57:42;22.80;33.30
64549;DHT22;49838;51.798;10.954;2023-05-17T07:00:10;22.80;32.50
64549;DHT22;49838;51.798;10.954;2023-05-17T07:02:39;22.50;32.90
64549;DHT22;49838;51.798;10.954;2023-05-17T07:05:06;22.10;32.70
64549;DHT22;49838;51.798;10.954;2023-05-17T07:07:35;21.90;33.20
64549;DHT22;49838;51.798;10.954;2023-05-17T07:10:03;21.70;32.30
64549;DHT22;49838;51.798;10.954;2023-05-17T07:12:30;21.70;32.70
64549;DHT22;49838;51.798;10.954;2023-05-17T07:14:58;22.00;32.90
64549;DHT22;49838;51.798;10.954;2023-05-17T07:17:25;22.50;32.90
64549;DHT22;49838;51.798;10.954;2023-05-17T07:19:52;22.70;32.90
64549;DHT22;49838;51.798;10.954;2023-05-17T07:22:19;22.70;32.60
64549;DHT22;49838;51.798;10.954;2023-05-17T07:24:48;22.40;31.90
64549;DHT22;49838;51.798;10.954;2023-05-17T07:27:16;22.10;31.70
64549;DHT22;49838;51.798;10.954;2023-05-17T07:29:43;21.80;31.70
64549;DHT22;49838;51.798;10.954;2023-05-17T07:32:10;21.60;32.20
64549;DHT22;49838;51.798;10.954;2023-05-17T07:34:38;21.50;32.00
64549;DHT22;49838;51.798;10.954;2023-05-17T07:37:05;21.30;32.00
64549;DHT22;49838;51.798;10.954;2023-05-17T07:39:32;21.10;32.10
64549;DHT22;49838;51.798;10.954;2023-05-17T07:42:01;20.80;32.00
64549;DHT22;49838;51.798;10.954;2023-05-17T07:44:28;20.50;32.20
64549;DHT22;49838;51.798;10.954;2023-05-17T07:46:55;20.30;32.30
64549;DHT22;49838;51.798;10.954;2023-05-17T07:49:22;20.30;32.50
64549;DHT22;49838;51.798;10.954;2023-05-17T07:51:50;20.40;32.30
64549;DHT22;49838;51.798;10.954;2023-05-17T07:54:21;20.60;32.40
64549;DHT22;49838;51.798;10.954;2023-05-17T07:56:50;21.40;33.10
64549;DHT22;49838;51.798;10.954;2023-05-17T07:59:19;22.20;33.70
64549;DHT22;49838;51.798;10.954;2023-05-17T08:01:49;22.60;33.60
64549;DHT22;49838;51.798;10.954;2023-05-17T08:04:17;22.70;32.70
64549;DHT22;49838;51.798;10.954;2023-05-17T08:06:45;22.60;31.70
64549;DHT22;49838;51.798;10.954;2023-05-17T08:09:13;22.30;31.50
64549;DHT22;49838;51.798;10.954;2023-05-17T08:11:41;22.10;31.40
64549;DHT22;49838;51.798;10.954;2023-05-17T08:14:11;21.80;31.70
64549;DHT22;49838;51.798;10.954;2023-05-17T08:16:41;21.90;31.90
64549;DHT22;49838;51.798;10.954;2023-05-17T08:19:10;22.60;32.20
64549;DHT22;49838;51.798;10.954;2023-05-17T08:21:39;23.10;31.90
64549;DHT22;49838;51.798;10.954;2023-05-17T08:24:07;23.00;31.70
64549;DHT22;49838;51.798;10.954;2023-05-17T08:26:36;23.00;31.40
64549;DHT22;49838;51.798;10.954;2023-05-17T08:29:04;22.90;31.20
64549;DHT22;49838;51.798;10.954;2023-05-17T08:31:34;23.00;31.00
64549;DHT22;49838;51.798;10.954;2023-05-17T08:34:02;23.20;31.10
64549;DHT22;49838;51.798;10.954;2023-05-17T08:36:30;23.10;30.40
64549;DHT22;49838;51.798;10.954;2023-05-17T08:39:00;23.30;30.60
64549;DHT22;49838;51.798;10.954;2023-05-17T08:41:28;23.40;30.70
64549;DHT22;49838;51.798;10.954;2023-05-17T08:43:56;23.60;30.40
64549;DHT22;49838;51.798;10.954;2023-05-17T08:46:24;24.00;31.00
64549;DHT22;49838;51.798;10.954;2023-05-17T08:48:56;24.10;30.90
64549;DHT22;49838;51.798;10.954;2023-05-17T08:51:28;24.10;30.80
64549;DHT22;49838;51.798;10.954;2023-05-17T08:53:55;23.90;30.20
64549;DHT22;49838;51.798;10.954;2023-05-17T08:56:24;23.70;30.10
64549;DHT22;49838;51.798;10.954;2023-05-17T08:58:54;23.70;30.00
64549;DHT22;49838;51.798;10.954;2023-05-17T09:01:25;23.70;29.90
64549;DHT22;49838;51.798;10.954;2023-05-17T09:03:53;23.50;29.70
64549;DHT22;49838;51.798;10.954;2023-05-17T09:06:22;23.40;29.60
64549;DHT22;49838;51.798;10.954;2023-05-17T09:08:51;23.30;29.20
64549;DHT22;49838;51.798;10.954;2023-05-17T09:11:23;23.20;28.90
64549;DHT22;49838;51.798;10.954;2023-05-17T09:13:52;23.40;28.50
64549;DHT22;49838;51.798;10.954;2023-05-17T09:16:20;23.60;29.30
64549;DHT22;49838;51.798;10.954;2023-05-17T09:18:54;24.00;28.50
64549;DHT22;49838;51.798;10.954;2023-05-17T09:21:29;24.30;28.40
64549;DHT22;49838;51.798;10.954;2023-05-17T09:24:00;24.20;27.80
64549;DHT22;49838;51.798;10.954;2023-05-17T09:26:36;23.90;27.90
64549;DHT22;49838;51.798;10.954;2023-05-17T09:29:06;24.00;28.60
64549;DHT22;49838;51.798;10.954;2023-05-17T09:31:35;24.00;27.30
64549;DHT22;49838;51.798;10.954;2023-05-17T09:34:06;24.10;27.90
64549;DHT22;49838;51.798;10.954;2023-05-17T09:36:34;24.00;28.10
64549;DHT22;49838;51.798;10.954;2023-05-17T09:39:05;24.10;27.80
64549;DHT22;49838;51.798;10.954;2023-05-17T09:41:40;24.00;27.50
64549;DHT22;49838;51.798;10.954;2023-05-17T09:44:08;24.00;27.60
64549;DHT22;49838;51.798;10.954;2023-05-17T09:46:37;24.10;28.10
64549;DHT22;49838;51.798;10.954;2023-05-17T09:49:07;24.30;28.50
64549;DHT22;49838;51.798;10.954;2023-05-17T09:51:35;24.40;28.50
64549;DHT22;49838;51.798;10.954;2023-05-17T09:54:06;24.50;28.00
64549;DHT22;49838;51.798;10.954;2023-05-17T09:56:34;24.50;28.10
64549;DHT22;49838;51.798;10.954;2023-05-17T09:59:03;24.50;28.00
64549;DHT22;49838;51.798;10.954;2023-05-17T10:01:37;24.40;27.90
64549;DHT22;49838;51.798;10.954;2023-05-17T10:04:06;24.30;27.80
64549;DHT22;49838;51.798;10.954;2023-05-17T10:06:35;24.60;28.20
64549;DHT22;49838;51.798;10.954;2023-05-17T10:09:07;24.60;27.40
64549;DHT22;49838;51.798;10.954;2023-05-17T10:11:39;24.50;27.90
64549;DHT22;49838;51.798;10.954;2023-05-17T10:14:10;24.40;28.00
64549;DHT22;49838;51.798;10.954;2023-05-17T10:16:39;24.40;27.80
64549;DHT22;49838;51.798;10.954;2023-05-17T10:19:07;24.80;28.40
64549;DHT22;49838;51.798;10.954;2023-05-17T10:21:37;24.90;28.00
64549;DHT22;49838;51.798;10.954;2023-05-17T10:24:07;24.90;27.10
64549;DHT22;49838;51.798;10.954;2023-05-17T10:26:37;24.60;27.10
64549;DHT22;49838;51.798;10.954;2023-05-17T10:29:05;24.20;27.10
64549;DHT22;49838;51.798;10.954;2023-05-17T10:31:33;24.20;27.90
64549;DHT22;49838;51.798;10.954;2023-05-17T10:34:01;24.50;28.40
64549;DHT22;49838;51.798;10.954;2023-05-17T10:36:30;24.70;28.10
64549;DHT22;49838;51.798;10.954;2023-05-17T10:38:59;24.80;28.00
64549;DHT22;49838;51.798;10.954;2023-05-17T10:41:29;24.80;27.90
64549;DHT22;49838;51.798;10.954;2023-05-17T10:43:59;24.80;28.10
64549;DHT22;49838;51.798;10.954;2023-05-17T10:46:29;24.80;27.90
64549;DHT22;49838;51.798;10.954;2023-05-17T10:48:57;24.70;27.30
64549;DHT22;49838;51.798;10.954;2023-05-17T10:51:28;24.80;27.20
64549;DHT22;49838;51.798;10.954;2023-05-17T10:54:03;25.10;26.90
64549;DHT22;49838;51.798;10.954;2023-05-17T10:56:34;25.00;26.80
64549;DHT22;49838;51.798;10.954;2023-05-17T10:59:16;24.70;26.20
64549;DHT22;49838;51.798;10.954;2023-05-17T11:01:53;24.50;26.10
64549;DHT22;49838;51.798;10.954;2023-05-17T11:04:25;24.40;26.40
64549;DHT22;49838;51.798;10.954;2023-05-17T11:06:55;24.20;26.30
64549;DHT22;49838;51.798;10.954;2023-05-17T11:09:52;24.10;25.90
64549;DHT22;49838;51.798;10.954;2023-05-17T11:12:30;24.00;26.50
64549;DHT22;49838;51.798;10.954;2023-05-17T11:15:04;24.00;26.40
64549;DHT22;49838;51.798;10.954;2023-05-17T11:17:36;24.00;26.80
64549;DHT22;49838;51.798;10.954;2023-05-17T11:20:31;24.00;26.80
64549;DHT22;49838;51.798;10.954;2023-05-17T11:23:00;24.20;26.80
64549;DHT22;49838;51.798;10.954;2023-05-17T11:25:29;24.40;27.10
64549;DHT22;49838;51.798;10.954;2023-05-17T11:28:06;24.40;26.40
64549;DHT22;49838;51.798;10.954;2023-05-17T11:30:39;24.10;26.40
64549;DHT22;49838;51.798;10.954;2023-05-17T11:33:08;23.90;26.20
64549;DHT22;49838;51.798;10.954;2023-05-17T11:35:36;23.80;26.50
64549;DHT22;49838;51.798;10.954;2023-05-17T11:38:11;23.80;26.70
64549;DHT22;49838;51.798;10.954;2023-05-17T11:40:39;23.90;27.10
64549;DHT22;49838;51.798;10.954;2023-05-17T11:43:12;24.00;27.10
64549;DHT22;49838;51.798;10.954;2023-05-17T11:45:41;24.10;27.10
64549;DHT22;49838;51.798;10.954;2023-05-17T11:48:09;24.10;26.70
64549;DHT22;49838;51.798;10.954;2023-05-17T11:50:38;24.00;26.40
64549;DHT22;49838;51.798;10.954;2023-05-17T11:53:05;23.60;26.40
64549;DHT22;49838;51.798;10.954;2023-05-17T11:55:33;23.50;26.80
64549;DHT22;49838;51.798;10.954;2023-05-17T11:58:05;23.30;26.90
64549;DHT22;49838;51.798;10.954;2023-05-17T12:00:35;23.30;27.10
64549;DHT22;49838;51.798;10.954;2023-05-17T12:03:16;23.40;27.10
64549;DHT22;49838;51.798;10.954;2023-05-17T12:05:45;23.50;27.10
64549;DHT22;49838;51.798;10.954;2023-05-17T12:08:14;23.60;27.10
64549;DHT22;49838;51.798;10.954;2023-05-17T12:10:45;23.50;27.10
64549;DHT22;49838;51.798;10.954;2023-05-17T12:13:14;23.60;27.20
64549;DHT22;49838;51.798;10.954;2023-05-17T12:15:45;23.70;26.90
64549;DHT22;49838;51.798;10.954;2023-05-17T12:18:17;23.70;26.90
64549;DHT22;49838;51.798;10.954;2023-05-17T12:20:54;23.70;26.90
64549;DHT22;49838;51.798;10.954;2023-05-17T12:23:27;23.80;26.40
64549;DHT22;49838;51.798;10.954;2023-05-17T12:26:02;23.60;25.80
64549;DHT22;49838;51.798;10.954;2023-05-17T12:28:30;23.40;26.00
64549;DHT22;49838;51.798;10.954;2023-05-17T12:31:00;23.40;26.20
64549;DHT22;49838;51.798;10.954;2023-05-17T12:33:30;23.40;26.70
64549;DHT22;49838;51.798;10.954;2023-05-17T12:35:58;23.50;26.80
64549;DHT22;49838;51.798;10.954;2023-05-17T12:38:27;23.50;26.80
64549;DHT22;49838;51.798;10.954;2023-05-17T12:40:57;23.50;26.70
64549;DHT22;49838;51.798;10.954;2023-05-17T12:43:26;23.70;26.70
64549;DHT22;49838;51.798;10.954;2023-05-17T12:45:55;23.80;26.70
64549;DHT22;49838;51.798;10.954;2023-05-17T12:48:29;23.90;26.80
64549;DHT22;49838;51.798;10.954;2023-05-17T12:50:57;23.90;26.50
64549;DHT22;49838;51.798;10.954;2023-05-17T12:53:35;23.80;26.50
64549;DHT22;49838;51.798;10.954;2023-05-17T12:56:03;23.60;26.10
64549;DHT22;49838;51.798;10.954;2023-05-17T12:58:31;23.50;26.40
64549;DHT22;49838;51.798;10.954;2023-05-17T13:00:59;23.50;26.90
64549;DHT22;49838;51.798;10.954;2023-05-17T13:03:29;23.50;26.20
64549;DHT22;49838;51.798;10.954;2023-05-17T13:05:58;23.40;26.20
64549;DHT22;49838;51.798;10.954;2023-05-17T13:08:27;23.20;26.10
64549;DHT22;49838;51.798;10.954;2023-05-17T13:11:04;23.00;26.10
64549;DHT22;49838;51.798;10.954;2023-05-17T13:13:35;22.90;25.80
64549;DHT22;49838;51.798;10.954;2023-05-17T13:16:03;22.80;26.30
64549;DHT22;49838;51.798;10.954;2023-05-17T13:21:16;22.60;26.20
64549;DHT22;49838;51.798;10.954;2023-05-17T13:23:45;22.70;26.50
64549;DHT22;49838;51.798;10.954;2023-05-17T13:26:13;22.80;26.60
64549;DHT22;49838;51.798;10.954;2023-05-17T13:28:40;22.90;26.60
64549;DHT22;49838;51.798;10.954;2023-05-17T13:31:08;23.00;26.60
64549;DHT22;49838;51.798;10.954;2023-05-17T13:33:35;23.00;26.60
64549;DHT22;49838;51.798;10.954;2023-05-17T13:36:04;23.00;26.60
64549;DHT22;49838;51.798;10.954;2023-05-17T13:38:32;22.90;26.50
64549;DHT22;49838;51.798;10.954;2023-05-17T13:40:59;22.80;26.60
64549;DHT22;49838;51.798;10.954;2023-05-17T13:43:27;22.70;26.60
64549;DHT22;49838;51.798;10.954;2023-05-17T13:45:54;22.80;26.70
64549;DHT22;49838;51.798;10.954;2023-05-17T13:48:23;22.80;26.70
64549;DHT22;49838;51.798;10.954;2023-05-17T13:50:51;22.90;26.60
64549;DHT22;49838;51.798;10.954;2023-05-17T13:53:20;23.00;26.60
64549;DHT22;49838;51.798;10.954;2023-05-17T13:55:47;23.10;26.50
64549;DHT22;49838;51.798;10.954;2023-05-17T13:58:14;23.20;26.30
64549;DHT22;49838;51.798;10.954;2023-05-17T14:00:42;23.10;26.40
64549;DHT22;49838;51.798;10.954;2023-05-17T14:03:10;23.00;26.60
64549;DHT22;49838;51.798;10.954;2023-05-17T14:05:40;22.90;26.60
64549;DHT22;49838;51.798;10.954;2023-05-17T14:08:12;23.00;26.70
64549;DHT22;49838;51.798;10.954;2023-05-17T14:10:41;23.00;26.70
64549;DHT22;49838;51.798;10.954;2023-05-17T14:13:08;22.80;26.60
64549;DHT22;49838;51.798;10.954;2023-05-17T14:15:36;22.70;26.70
64549;DHT22;49838;51.798;10.954;2023-05-17T14:18:04;22.50;26.10
64549;DHT22;49838;51.798;10.954;2023-05-17T14:20:33;22.40;26.50
64549;DHT22;49838;51.798;10.954;2023-05-17T14:23:05;22.40;26.60
64549;DHT22;49838;51.798;10.954;2023-05-17T14:25:35;22.40;26.60
64549;DHT22;49838;51.798;10.954;2023-05-17T14:28:04;22.50;26.60
64549;DHT22;49838;51.798;10.954;2023-05-17T14:30:32;22.50;26.60
64549;DHT22;49838;51.798;10.954;2023-05-17T14:32:59;22.60;26.60
64549;DHT22;49838;51.798;10.954;2023-05-17T14:35:27;22.70;26.20
64549;DHT22;49838;51.798;10.954;2023-05-17T14:37:55;22.60;26.40
64549;DHT22;49838;51.798;10.954;2023-05-17T14:40:22;22.60;26.20
64549;DHT22;49838;51.798;10.954;2023-05-17T14:42:49;22.50;26.30
64549;DHT22;49838;51.798;10.954;2023-05-17T14:45:18;22.40;26.60
64549;DHT22;49838;51.798;10.954;2023-05-17T14:47:45;22.40;26.70
64549;DHT22;49838;51.798;10.954;2023-05-17T14:50:13;22.50;26.70
64549;DHT22;49838;51.798;10.954;2023-05-17T14:52:40;22.40;26.70
64549;DHT22;49838;51.798;10.954;2023-05-17T14:55:09;22.50;26.50
64549;DHT22;49838;51.798;10.954;2023-05-17T14:57:36;22.60;26.50
64549;DHT22;49838;51.798;10.954;2023-05-17T15:00:05;22.60;26.50
64549;DHT22;49838;51.798;10.954;2023-05-17T15:02:36;22.50;26.60
64549;DHT22;49838;51.798;10.954;2023-05-17T15:05:04;22.40;26.70
64549;DHT22;49838;51.798;10.954;2023-05-17T15:07:35;22.30;26.70
64549;DHT22;49838;51.798;10.954;2023-05-17T15:10:03;22.40;26.60
64549;DHT22;49838;51.798;10.954;2023-05-17T15:12:31;22.40;26.50
64549;DHT22;49838;51.798;10.954;2023-05-17T15:14:58;22.30;26.20
64549;DHT22;49838;51.798;10.954;2023-05-17T15:17:28;22.20;26.30
64549;DHT22;49838;51.798;10.954;2023-05-17T15:19:57;22.10;26.20
64549;DHT22;49838;51.798;10.954;2023-05-17T15:22:24;22.00;26.10
64549;DHT22;49838;51.798;10.954;2023-05-17T15:24:53;21.90;26.30
64549;DHT22;49838;51.798;10.954;2023-05-17T15:27:22;21.80;26.40
64549;DHT22;49838;51.798;10.954;2023-05-17T15:29:49;21.90;26.50